createdAt,value
2022-07-29T00:00:59.758Z,15.10
2022-07-29T00:03:26.388Z,14.92
2022-07-29T00:05:54.144Z,14.94
2022-07-29T00:08:20.967Z,15.02
2022-07-29T00:10:47.583Z,15.12
2022-07-29T00:13:14.148Z,15.06
2022-07-29T00:15:40.636Z,14.85
2022-07-29T00:18:07.195Z,14.77
2022-07-29T00:20:33.839Z,14.71
2022-07-29T00:23:00.333Z,14.74
2022-07-29T00:25:26.823Z,14.67
2022-07-29T00:27:53.301Z,14.61
2022-07-29T00:30:19.778Z,14.66
2022-07-29T00:32:46.280Z,14.62
2022-07-29T00:35:31.588Z,14.53
2022-07-29T00:38:00.137Z,14.55
2022-07-29T00:40:28.682Z,14.68
2022-07-29T00:42:55.234Z,14.28
2022-07-29T00:45:23.098Z,14.41
2022-07-29T00:47:49.879Z,14.61
2022-07-29T00:50:16.378Z,14.50
2022-07-29T00:52:43.338Z,14.57
2022-07-29T00:55:15.342Z,14.15
2022-07-29T00:57:42.768Z,14.24
2022-07-29T01:00:12.418Z,13.97
2022-07-29T01:02:39.103Z,14.30
2022-07-29T01:05:06.848Z,14.22
2022-07-29T01:07:35.371Z,14.12
2022-07-29T01:10:03.670Z,14.34
2022-07-29T01:12:33.877Z,14.22
2022-07-29T01:15:01.895Z,14.29
2022-07-29T01:17:53.427Z,14.17
2022-07-29T01:20:41.201Z,14.06
2022-07-29T01:23:07.659Z,14.17
2022-07-29T01:25:56.322Z,14.08
2022-07-29T01:28:46.537Z,14.02
2022-07-29T01:31:22.810Z,14.11
2022-07-29T01:33:59.205Z,14.02
2022-07-29T01:36:33.653Z,13.75
2022-07-29T01:39:06.550Z,14.14
2022-07-29T01:41:35.204Z,13.86
2022-07-29T01:44:18.708Z,13.85
2022-07-29T01:46:51.062Z,13.97
2022-07-29T01:49:29.298Z,13.85
2022-07-29T01:51:59.764Z,13.75
2022-07-29T01:54:29.438Z,13.61
2022-07-29T01:56:57.912Z,13.79
2022-07-29T01:59:24.735Z,13.81
2022-07-29T02:01:54.455Z,13.76
2022-07-29T02:04:29.202Z,13.81
2022-07-29T02:06:59.386Z,13.78
2022-07-29T02:09:26.411Z,13.57
2022-07-29T02:11:54.668Z,13.47
2022-07-29T02:14:22.736Z,13.69
2022-07-29T02:16:53.531Z,13.29
2022-07-29T02:19:22.573Z,13.68
2022-07-29T02:21:49.341Z,13.86
2022-07-29T02:24:18.790Z,13.75
2022-07-29T02:26:45.514Z,13.47
2022-07-29T02:29:13.038Z,13.41
2022-07-29T02:31:40.327Z,13.48
2022-07-29T02:34:08.345Z,13.78
2022-07-29T02:36:35.432Z,13.71
2022-07-29T02:39:03.758Z,13.33
2022-07-29T02:41:36.754Z,13.20
2022-07-29T02:44:07.301Z,13.18
2022-07-29T02:46:35.220Z,13.20
2022-07-29T02:49:20.552Z,13.13
2022-07-29T02:51:56.337Z,13.33
2022-07-29T02:54:37.811Z,13.30
2022-07-29T02:57:10.729Z,13.48
2022-07-29T02:59:37.906Z,13.36
2022-07-29T03:02:06.189Z,13.12
2022-07-29T03:04:33.586Z,13.27
2022-07-29T03:07:01.758Z,13.21
2022-07-29T03:09:29.066Z,13.27
2022-07-29T03:11:56.129Z,13.37
2022-07-29T03:14:24.002Z,13.33
2022-07-29T03:16:50.955Z,13.47
2022-07-29T03:19:18.754Z,13.46
2022-07-29T03:21:45.274Z,13.30
2022-07-29T03:24:28.864Z,13.35
2022-07-29T03:26:57.185Z,13.30
2022-07-29T03:29:23.814Z,13.71
2022-07-29T03:31:51.224Z,13.87
2022-07-29T03:34:18.135Z,13.70
2022-07-29T03:36:44.789Z,13.94
2022-07-29T03:39:13.278Z,13.72
2022-07-29T03:41:39.926Z,13.62
2022-07-29T03:44:07.932Z,13.58
2022-07-29T03:46:35.089Z,13.33
2022-07-29T03:49:02.408Z,13.46
2022-07-29T03:51:33.128Z,13.34
2022-07-29T03:54:03.816Z,13.21
2022-07-29T03:56:34.166Z,13.21
2022-07-29T03:59:02.938Z,13.21
2022-07-29T04:01:30.556Z,13.47
2022-07-29T04:03:57.614Z,13.69
2022-07-29T04:06:24.260Z,13.71
2022-07-29T04:08:50.880Z,13.60
2022-07-29T04:11:17.383Z,13.85
2022-07-29T04:13:43.849Z,14.08
2022-07-29T04:16:10.368Z,13.90
2022-07-29T04:18:36.880Z,14.12
2022-07-29T04:21:05.007Z,14.07
2022-07-29T04:23:34.503Z,14.15
2022-07-29T04:26:02.147Z,14.36
2022-07-29T04:28:29.100Z,14.38
2022-07-29T04:30:55.678Z,14.72
2022-07-29T04:33:22.211Z,14.55
2022-07-29T04:35:52.321Z,14.68
2022-07-29T04:38:19.122Z,14.60
2022-07-29T04:40:45.659Z,14.80
2022-07-29T04:43:14.343Z,14.81
2022-07-29T04:45:42.122Z,14.88
2022-07-29T04:48:08.676Z,14.89
2022-07-29T04:50:35.246Z,14.92
2022-07-29T04:53:01.732Z,15.19
2022-07-29T04:55:28.298Z,15.21
2022-07-29T04:57:54.762Z,14.91
2022-07-29T05:00:21.384Z,15.16
2022-07-29T05:02:58.666Z,15.20
2022-07-29T05:05:25.181Z,15.21
2022-07-29T05:07:51.686Z,15.41
2022-07-29T05:10:18.182Z,15.36
2022-07-29T05:12:44.670Z,15.52
2022-07-29T05:15:11.286Z,15.58
2022-07-29T05:17:38.260Z,15.62
2022-07-29T05:20:06.016Z,15.85
2022-07-29T05:22:32.530Z,15.88
2022-07-29T05:24:58.988Z,16.01
2022-07-29T05:27:25.463Z,16.66
2022-07-29T05:29:52.163Z,16.86
2022-07-29T05:32:18.658Z,16.79
2022-07-29T05:34:51.229Z,16.82
2022-07-29T05:37:20.070Z,16.58
2022-07-29T05:39:48.934Z,17.02
2022-07-29T05:42:16.889Z,16.81
2022-07-29T05:44:43.368Z,16.97
2022-07-29T05:47:09.897Z,17.22
2022-07-29T05:49:36.431Z,17.42
2022-07-29T05:52:03.128Z,17.26
2022-07-29T05:54:29.598Z,17.04
2022-07-29T05:56:56.083Z,17.10
2022-07-29T05:59:25.963Z,17.14
2022-07-29T06:01:54.930Z,16.97
2022-07-29T06:04:21.695Z,17.36
2022-07-29T06:06:48.218Z,17.57
2022-07-29T06:09:14.935Z,18.08
2022-07-29T06:11:41.637Z,17.48
2022-07-29T06:14:08.095Z,17.86
2022-07-29T06:16:34.609Z,18.23
2022-07-29T06:19:01.148Z,18.53
2022-07-29T06:21:27.625Z,18.29
2022-07-29T06:23:54.160Z,19.09
2022-07-29T06:26:28.473Z,19.32
2022-07-29T06:28:58.171Z,18.91
2022-07-29T06:31:24.755Z,18.63
2022-07-29T06:33:51.357Z,19.23
2022-07-29T06:36:21.193Z,18.64
2022-07-29T06:38:51.463Z,18.67
2022-07-29T06:41:19.078Z,18.69
2022-07-29T06:43:52.305Z,19.14
2022-07-29T06:46:21.873Z,19.41
2022-07-29T06:48:49.274Z,19.71
2022-07-29T06:51:17.292Z,19.96
2022-07-29T06:54:00.330Z,19.68
2022-07-29T06:56:29.424Z,19.94
2022-07-29T06:58:55.980Z,20.08
2022-07-29T07:01:22.625Z,20.05
2022-07-29T07:03:49.263Z,20.22
2022-07-29T07:06:15.909Z,20.31
2022-07-29T07:08:42.410Z,19.96
2022-07-29T07:11:09.589Z,20.23
2022-07-29T07:13:36.543Z,20.28
2022-07-29T07:16:03.952Z,20.28
2022-07-29T07:18:30.856Z,20.18
2022-07-29T07:20:59.062Z,20.77
2022-07-29T07:23:25.891Z,21.41
2022-07-29T07:25:52.483Z,21.67
2022-07-29T07:28:19.609Z,21.98
2022-07-29T07:30:52.041Z,21.47
2022-07-29T07:33:18.605Z,21.53
2022-07-29T07:35:45.351Z,21.54
2022-07-29T07:38:11.854Z,21.29
2022-07-29T07:40:38.441Z,21.21
2022-07-29T07:43:05.010Z,21.18
2022-07-29T07:45:33.623Z,21.60
2022-07-29T07:48:00.376Z,21.97
2022-07-29T07:50:27.114Z,21.20
2022-07-29T07:52:56.054Z,22.09
2022-07-29T07:55:22.601Z,22.06
2022-07-29T07:57:49.134Z,22.11
2022-07-29T08:00:17.100Z,21.89
2022-07-29T08:02:44.158Z,21.27
2022-07-29T08:05:12.589Z,22.06
2022-07-29T08:07:39.869Z,22.54
2022-07-29T08:10:06.884Z,22.72
2022-07-29T08:12:33.350Z,22.84
2022-07-29T08:14:59.901Z,23.37
2022-07-29T08:17:27.557Z,23.29
2022-07-29T08:19:54.067Z,23.52
2022-07-29T08:22:20.762Z,23.61
2022-07-29T08:24:53.418Z,23.43
2022-07-29T08:27:42.337Z,23.12
2022-07-29T08:30:08.555Z,22.90
2022-07-29T08:32:53.120Z,23.05
2022-07-29T08:35:21.765Z,23.19
2022-07-29T08:37:48.438Z,23.30
2022-07-29T08:40:15.412Z,23.61
2022-07-29T08:42:41.967Z,23.79
2022-07-29T08:45:09.028Z,23.60
2022-07-29T08:47:39.574Z,23.68
2022-07-29T08:50:07.670Z,23.42
2022-07-29T08:52:37.392Z,23.94
2022-07-29T08:55:06.386Z,23.63
2022-07-29T08:57:33.853Z,24.44
2022-07-29T09:00:07.925Z,24.81
2022-07-29T09:02:41.482Z,24.40
2022-07-29T09:05:08.775Z,23.47
2022-07-29T09:07:35.379Z,24.63
2022-07-29T09:10:02.641Z,24.03
2022-07-29T09:12:32.738Z,24.39
2022-07-29T09:15:01.376Z,24.32
2022-07-29T09:17:41.954Z,25.28
2022-07-29T09:20:14.000Z,26.00
2022-07-29T09:22:42.220Z,26.96
2022-07-29T09:25:09.124Z,26.86
2022-07-29T09:27:35.674Z,27.97
2022-07-29T09:30:06.374Z,26.60
2022-07-29T09:32:33.886Z,27.28
2022-07-29T09:35:21.333Z,27.20
2022-07-29T09:37:48.648Z,24.88
2022-07-29T09:40:17.622Z,25.26
2022-07-29T09:42:44.932Z,26.59
2022-07-29T09:45:12.349Z,26.88
2022-07-29T09:47:47.921Z,27.67
2022-07-29T09:50:14.711Z,27.48
2022-07-29T09:52:49.629Z,26.24
2022-07-29T09:55:18.391Z,26.44
2022-07-29T09:57:47.351Z,26.95
2022-07-29T10:00:19.015Z,26.84
2022-07-29T10:02:47.541Z,26.05
2022-07-29T10:05:22.916Z,27.52
2022-07-29T10:07:55.234Z,27.91
2022-07-29T10:10:29.982Z,27.56
2022-07-29T10:13:01.802Z,27.65
2022-07-29T10:15:38.082Z,28.60
2022-07-29T10:18:05.173Z,28.60
2022-07-29T10:20:31.919Z,27.10
2022-07-29T10:22:58.605Z,26.75
2022-07-29T10:25:26.586Z,27.17
2022-07-29T10:27:54.193Z,28.30
2022-07-29T10:30:22.099Z,28.80
2022-07-29T10:33:00.118Z,28.66
2022-07-29T10:35:50.912Z,28.00
2022-07-29T10:38:46.083Z,27.72
2022-07-29T10:42:03.598Z,28.12
2022-07-29T10:44:30.701Z,28.63
2022-07-29T10:46:57.501Z,29.55
2022-07-29T10:49:27.248Z,27.64
2022-07-29T10:52:08.337Z,26.99
2022-07-29T10:54:43.667Z,27.09
2022-07-29T10:57:13.979Z,28.33
2022-07-29T10:59:42.855Z,29.50
2022-07-29T11:02:41.893Z,28.34
2022-07-29T11:05:10.876Z,28.50
2022-07-29T11:07:45.533Z,27.44
2022-07-29T11:10:16.421Z,27.36
2022-07-29T11:12:42.946Z,28.21
2022-07-29T11:15:18.344Z,27.58
2022-07-29T11:17:54.431Z,29.17
2022-07-29T11:20:47.811Z,28.31
2022-07-29T11:23:36.536Z,29.18
2022-07-29T11:26:28.459Z,29.59
2022-07-29T11:29:14.444Z,30.38
2022-07-29T11:31:46.356Z,30.32
2022-07-29T11:34:22.588Z,30.50
2022-07-29T11:37:07.562Z,29.32
2022-07-29T11:39:36.596Z,28.64
2022-07-29T11:42:32.630Z,28.44
2022-07-29T11:45:44.629Z,29.63
2022-07-29T11:48:29.223Z,29.59
2022-07-29T11:50:58.531Z,28.93
2022-07-29T11:53:25.792Z,29.71
2022-07-29T11:55:58.308Z,28.11
2022-07-29T12:01:15.209Z,29.86
2022-07-29T12:03:43.725Z,28.44
2022-07-29T12:06:15.619Z,28.59
2022-07-29T12:07:03.883Z,29.57
2022-07-29T12:08:45.419Z,29.97
2022-07-29T12:11:20.570Z,28.77
2022-07-29T12:13:49.320Z,28.56
2022-07-29T12:16:16.202Z,29.15
2022-07-29T12:19:03.927Z,29.08
2022-07-29T12:21:52.286Z,28.57
2022-07-29T12:24:22.807Z,27.69
2022-07-29T12:26:57.998Z,27.73
2022-07-29T12:29:34.892Z,28.38
2022-07-29T12:32:03.300Z,28.64
2022-07-29T12:34:30.583Z,27.92
2022-07-29T12:36:57.148Z,26.86
2022-07-29T12:39:23.885Z,27.50
2022-07-29T12:41:50.473Z,27.11
2022-07-29T12:44:16.960Z,26.90
2022-07-29T12:46:43.571Z,28.16
2022-07-29T12:49:10.167Z,28.28
2022-07-29T12:51:41.503Z,28.56
2022-07-29T12:54:14.732Z,28.34
2022-07-29T12:56:45.308Z,28.10
2022-07-29T12:59:20.201Z,28.70
2022-07-29T13:01:50.619Z,28.40
2022-07-29T13:04:26.916Z,27.55
2022-07-29T13:07:09.145Z,27.16
2022-07-29T13:09:44.482Z,26.92
2022-07-29T13:12:13.135Z,27.26
2022-07-29T13:14:41.946Z,27.65
2022-07-29T13:17:12.440Z,27.92
2022-07-29T13:19:52.978Z,26.76
2022-07-29T13:22:23.895Z,27.13
2022-07-29T13:24:52.612Z,28.70
2022-07-29T13:27:20.767Z,28.57
2022-07-29T13:29:47.914Z,28.56
2022-07-29T13:32:14.778Z,28.70
2022-07-29T13:34:41.771Z,30.01
2022-07-29T13:37:08.853Z,29.12
2022-07-29T13:39:35.483Z,30.90
2022-07-29T13:42:02.158Z,30.29
2022-07-29T13:44:28.773Z,29.59
2022-07-29T13:46:55.398Z,29.60
2022-07-29T13:49:21.956Z,30.72
2022-07-29T13:51:48.591Z,30.35
2022-07-29T13:54:15.060Z,30.45
2022-07-29T13:56:41.583Z,29.87
2022-07-29T13:59:08.756Z,28.86
2022-07-29T14:01:36.300Z,29.04
2022-07-29T14:04:03.827Z,27.83
2022-07-29T14:06:30.367Z,27.41
2022-07-29T14:08:56.921Z,27.38
2022-07-29T14:11:23.492Z,28.17
2022-07-29T14:13:50.001Z,28.62
2022-07-29T14:16:16.624Z,28.01
2022-07-29T14:18:43.574Z,28.22
2022-07-29T14:21:10.045Z,29.43
2022-07-29T14:23:37.537Z,30.13
2022-07-29T14:26:08.880Z,27.74
2022-07-29T14:28:42.657Z,26.82
2022-07-29T14:31:09.137Z,26.44
2022-07-29T14:33:35.674Z,27.56
2022-07-29T14:36:02.182Z,27.56
2022-07-29T14:38:28.645Z,27.30
2022-07-29T14:40:55.145Z,26.66
2022-07-29T14:43:21.646Z,27.16
2022-07-29T14:45:48.367Z,27.13
2022-07-29T14:48:14.857Z,26.98
2022-07-29T14:50:41.377Z,26.56
2022-07-29T14:53:07.840Z,26.60
2022-07-29T14:55:34.371Z,26.13
2022-07-29T14:58:09.862Z,25.55
2022-07-29T15:00:38.816Z,26.47
2022-07-29T15:03:06.256Z,26.42
2022-07-29T15:05:33.153Z,26.08
2022-07-29T15:08:00.464Z,26.16
2022-07-29T15:10:29.930Z,25.93
2022-07-29T15:12:56.958Z,25.21
2022-07-29T15:15:23.600Z,26.03
2022-07-29T15:17:50.075Z,25.42
2022-07-29T15:20:16.648Z,25.66
2022-07-29T15:22:43.957Z,25.95
2022-07-29T15:25:10.856Z,25.64
2022-07-29T15:27:37.348Z,26.60
2022-07-29T15:30:04.261Z,26.88
2022-07-29T15:32:30.816Z,26.61
2022-07-29T15:34:57.284Z,26.05
2022-07-29T15:37:23.758Z,26.80
2022-07-29T15:39:50.426Z,25.70
2022-07-29T15:42:17.827Z,26.05
2022-07-29T15:44:44.509Z,26.54
2022-07-29T15:47:10.981Z,25.73
2022-07-29T15:49:47.038Z,25.36
2022-07-29T15:52:16.494Z,25.68
2022-07-29T15:54:43.360Z,26.15
2022-07-29T15:57:09.936Z,26.46
2022-07-29T15:59:36.517Z,25.73
2022-07-29T16:02:03.548Z,25.48
2022-07-29T16:04:30.060Z,25.94
2022-07-29T16:06:57.487Z,25.59
2022-07-29T16:09:24.232Z,25.19
2022-07-29T16:11:54.114Z,24.59
2022-07-29T16:14:21.196Z,24.85
2022-07-29T16:16:48.620Z,25.08
2022-07-29T16:19:15.224Z,25.21
2022-07-29T16:21:41.986Z,25.26
2022-07-29T16:24:08.694Z,25.12
2022-07-29T16:26:35.389Z,25.01
2022-07-29T16:29:01.935Z,25.42
2022-07-29T16:31:28.514Z,25.64
2022-07-29T16:33:56.041Z,25.74
2022-07-29T16:36:23.108Z,25.16
2022-07-29T16:38:50.085Z,25.32
2022-07-29T16:41:16.638Z,25.67
2022-07-29T16:43:43.175Z,25.47
2022-07-29T16:46:12.505Z,25.42
2022-07-29T16:48:45.392Z,25.56
2022-07-29T16:51:14.307Z,25.71
2022-07-29T16:53:41.402Z,24.64
2022-07-29T16:56:08.558Z,25.08
2022-07-29T16:58:43.575Z,24.83
2022-07-29T17:01:10.445Z,24.63
2022-07-29T17:03:59.924Z,25.18
2022-07-29T17:06:28.677Z,25.29
2022-07-29T17:08:56.268Z,25.22
2022-07-29T17:11:22.737Z,24.88
2022-07-29T17:14:10.160Z,24.56
2022-07-29T17:16:36.736Z,24.33
2022-07-29T17:19:03.468Z,24.90
2022-07-29T17:21:29.950Z,25.06
2022-07-29T17:23:56.537Z,24.58
2022-07-29T17:26:23.027Z,24.71
2022-07-29T17:28:49.592Z,24.72
2022-07-29T17:31:16.371Z,24.43
2022-07-29T17:33:42.974Z,24.92
2022-07-29T17:36:24.493Z,24.67
2022-07-29T17:38:52.861Z,24.81
2022-07-29T17:41:19.701Z,24.85
2022-07-29T17:43:46.180Z,24.69
2022-07-29T17:46:12.691Z,24.62
2022-07-29T17:48:39.234Z,24.38
2022-07-29T17:51:05.769Z,24.36
2022-07-29T17:53:32.278Z,24.32
2022-07-29T17:55:58.834Z,24.59
2022-07-29T17:58:27.784Z,24.10
2022-07-29T18:00:54.300Z,24.05
2022-07-29T18:03:21.014Z,24.24
2022-07-29T18:05:47.667Z,24.17
2022-07-29T18:08:14.126Z,24.10
2022-07-29T18:10:41.357Z,24.35
2022-07-29T18:13:07.872Z,23.64
2022-07-29T18:15:34.538Z,23.72
2022-07-29T18:18:01.059Z,24.09
2022-07-29T18:20:27.654Z,23.93
2022-07-29T18:22:54.150Z,24.53
2022-07-29T18:25:20.853Z,24.13
2022-07-29T18:27:47.393Z,24.02
2022-07-29T18:30:15.204Z,23.36
2022-07-29T18:32:54.317Z,23.99
2022-07-29T18:35:28.583Z,23.64
2022-07-29T18:38:01.696Z,23.35
2022-07-29T18:40:29.714Z,23.74
2022-07-29T18:42:56.501Z,23.84
2022-07-29T18:45:23.107Z,23.56
2022-07-29T18:47:55.833Z,23.12
2022-07-29T18:50:28.903Z,23.10
2022-07-29T18:52:58.425Z,23.14
2022-07-29T18:55:25.715Z,22.96
2022-07-29T18:57:55.015Z,22.94
2022-07-29T19:00:23.881Z,23.05
2022-07-29T19:02:50.619Z,22.73
2022-07-29T19:05:17.244Z,22.71
2022-07-29T19:07:43.999Z,22.54
2022-07-29T19:10:11.263Z,22.57
2022-07-29T19:12:38.458Z,22.40
2022-07-29T19:15:05.249Z,22.39
2022-07-29T19:17:31.767Z,22.32
2022-07-29T19:19:58.665Z,22.08
2022-07-29T19:22:25.608Z,22.15
2022-07-29T19:24:53.275Z,22.50
2022-07-29T19:27:20.170Z,22.73
2022-07-29T19:29:47.295Z,22.29
2022-07-29T19:32:14.658Z,22.06
2022-07-29T19:35:10.754Z,22.09
2022-07-29T19:37:37.541Z,21.98
2022-07-29T19:40:05.256Z,21.87
2022-07-29T19:42:31.723Z,22.00
2022-07-29T19:44:58.934Z,21.93
2022-07-29T19:47:26.006Z,21.83
2022-07-29T19:49:53.128Z,21.77
2022-07-29T19:52:19.760Z,21.85
2022-07-29T19:54:46.238Z,21.69
2022-07-29T19:57:12.993Z,22.02
2022-07-29T19:59:41.088Z,21.57
2022-07-29T20:02:10.776Z,21.74
2022-07-29T20:04:37.757Z,21.51
2022-07-29T20:07:05.070Z,21.71
2022-07-29T20:09:31.596Z,21.59
2022-07-29T20:11:58.233Z,21.28
2022-07-29T20:14:24.734Z,21.62
2022-07-29T20:16:51.282Z,21.27
2022-07-29T20:19:17.777Z,21.56
2022-07-29T20:21:44.325Z,21.45
2022-07-29T20:24:11.143Z,21.26
2022-07-29T20:26:37.721Z,21.35
2022-07-29T20:29:05.361Z,21.27
2022-07-29T20:31:32.779Z,21.04
2022-07-29T20:34:01.905Z,21.37
2022-07-29T20:36:28.700Z,20.95
2022-07-29T20:38:56.016Z,21.12
2022-07-29T20:41:22.677Z,21.16
2022-07-29T20:43:49.874Z,21.31
2022-07-29T20:46:16.511Z,21.51
2022-07-29T20:48:43.170Z,21.32
2022-07-29T20:51:09.729Z,20.95
2022-07-29T20:53:38.464Z,20.86
2022-07-29T20:56:05.603Z,21.18
2022-07-29T20:58:34.037Z,21.01
2022-07-29T21:01:01.107Z,20.89
2022-07-29T21:03:27.658Z,21.25
2022-07-29T21:05:54.170Z,20.98
2022-07-29T21:08:20.635Z,21.33
2022-07-29T21:10:47.166Z,20.83
2022-07-29T21:13:14.384Z,20.85
2022-07-29T21:15:46.422Z,21.01
2022-07-29T21:18:27.006Z,20.68
2022-07-29T21:20:57.736Z,20.76
2022-07-29T21:23:25.305Z,20.90
2022-07-29T21:25:52.375Z,20.65
2022-07-29T21:28:30.423Z,20.70
2022-07-29T21:30:58.984Z,20.67
2022-07-29T21:33:29.936Z,21.02
2022-07-29T21:36:15.996Z,20.93
2022-07-29T21:38:43.008Z,20.72
2022-07-29T21:41:12.485Z,20.48
2022-07-29T21:43:41.869Z,20.33
2022-07-29T21:46:09.034Z,20.69
2022-07-29T21:48:36.076Z,20.51
2022-07-29T21:51:02.641Z,20.77
2022-07-29T21:53:29.264Z,20.84
2022-07-29T21:55:57.274Z,20.64
2022-07-29T21:58:24.701Z,20.71
2022-07-29T22:00:51.362Z,20.74
2022-07-29T22:03:17.892Z,20.58
2022-07-29T22:05:44.926Z,20.33
2022-07-29T22:08:11.584Z,20.62
2022-07-29T22:10:38.146Z,20.61
2022-07-29T22:13:04.683Z,20.56
2022-07-29T22:15:31.552Z,20.50
2022-07-29T22:17:58.062Z,20.90
2022-07-29T22:20:25.072Z,20.32
2022-07-29T22:22:51.985Z,20.25
2022-07-29T22:25:18.521Z,20.27
2022-07-29T22:27:45.228Z,20.52
2022-07-29T22:30:12.325Z,20.34
2022-07-29T22:32:38.834Z,20.45
2022-07-29T22:35:05.663Z,20.36
2022-07-29T22:37:32.236Z,20.52
2022-07-29T22:39:58.871Z,20.59
2022-07-29T22:42:25.614Z,20.11
2022-07-29T22:44:52.096Z,20.40
2022-07-29T22:47:18.795Z,20.29
2022-07-29T22:50:06.831Z,20.35
2022-07-29T22:52:33.402Z,20.21
2022-07-29T22:55:00.599Z,20.38
2022-07-29T22:57:27.097Z,20.57
2022-07-29T22:59:53.608Z,20.48
2022-07-29T23:02:20.121Z,20.16
2022-07-29T23:04:46.588Z,20.33
2022-07-29T23:07:13.079Z,20.35
2022-07-29T23:09:39.657Z,20.28
2022-07-29T23:12:06.473Z,20.67
2022-07-29T23:14:33.081Z,20.31
2022-07-29T23:17:00.027Z,20.42
2022-07-29T23:19:27.376Z,20.42
2022-07-29T23:21:53.898Z,20.35
2022-07-29T23:24:20.415Z,20.43
2022-07-29T23:26:46.917Z,20.29
2022-07-29T23:29:13.396Z,20.19
2022-07-29T23:31:42.628Z,20.41
2022-07-29T23:34:14.640Z,20.34
2022-07-29T23:36:42.327Z,20.45
2022-07-29T23:39:13.201Z,20.42
2022-07-29T23:41:39.830Z,20.29
2022-07-29T23:44:06.372Z,20.68
2022-07-29T23:46:32.971Z,20.54
2022-07-29T23:48:59.926Z,20.57
2022-07-29T23:51:26.669Z,20.59
2022-07-29T23:53:54.329Z,20.61
2022-07-29T23:56:21.278Z,20.96
2022-07-29T23:58:47.818Z,20.69
